sensor_id;sensor_type;location;lat;lon;timestamp;temperature;humidity
12720;DHT22;6424;48.520;11.228;2023-03-20T00:01:48;7.70;99.90
12720;DHT22;6424;48.520;11.228;2023-03-20T00:04:14;7.70;99.90
12720;DHT22;6424;48.520;11.228;2023-03-20T00:06:55;7.70;99.90
12720;DHT22;6424;48.520;11.228;2023-03-20T00:09:36;7.70;99.90
12720;DHT22;6424;48.520;11.228;2023-03-20T00:12:23;7.70;99.90
12720;DHT22;6424;48.520;11.228;2023-03-20T00:15:07;7.70;99.90
12720;DHT22;6424;48.520;11.228;2023-03-20T00:17:54;7.60;99.90
12720;DHT22;6424;48.520;11.228;2023-03-20T00:20:35;7.60;99.90
12720;DHT22;6424;48.520;11.228;2023-03-20T00:23:16;7.60;99.90
12720;DHT22;6424;48.520;11.228;2023-03-20T00:25:43;7.70;99.90
12720;DHT22;6424;48.520;11.228;2023-03-20T00:28:41;7.70;99.90
12720;DHT22;6424;48.520;11.228;2023-03-20T00:31:28;7.70;99.90
12720;DHT22;6424;48.520;11.228;2023-03-20T00:34:12;7.80;99.90
12720;DHT22;6424;48.520;11.228;2023-03-20T00:36:54;7.80;99.90
12720;DHT22;6424;48.520;11.228;2023-03-20T00:39:35;7.90;99.90
12720;DHT22;6424;48.520;11.228;2023-03-20T00:42:20;7.90;99.90
12720;DHT22;6424;48.520;11.228;2023-03-20T00:45:04;7.90;99.90
12720;DHT22;6424;48.520;11.228;2023-03-20T00:47:50;8.00;99.90
12720;DHT22;6424;48.520;11.228;2023-03-20T00:50:31;8.00;99.90
12720;DHT22;6424;48.520;11.228;2023-03-20T00:53:13;8.00;99.90
12720;DHT22;6424;48.520;11.228;2023-03-20T00:55:53;8.00;99.90
12720;DHT22;6424;48.520;11.228;2023-03-20T00:58:34;8.00;99.90
12720;DHT22;6424;48.520;11.228;2023-03-20T01:01:16;8.00;99.90
12720;DHT22;6424;48.520;11.228;2023-03-20T01:03:58;8.00;99.90
12720;DHT22;6424;48.520;11.228;2023-03-20T01:06:39;8.00;99.90
12720;DHT22;6424;48.520;11.228;2023-03-20T01:09:20;8.10;99.90
12720;DHT22;6424;48.520;11.228;2023-03-20T01:12:02;8.10;99.90
12720;DHT22;6424;48.520;11.228;2023-03-20T01:14:43;8.20;99.90
12720;DHT22;6424;48.520;11.228;2023-03-20T01:17:27;8.20;99.90
12720;DHT22;6424;48.520;11.228;2023-03-20T01:20:18;8.30;99.90
12720;DHT22;6424;48.520;11.228;2023-03-20T01:23:00;8.30;99.90
12720;DHT22;6424;48.520;11.228;2023-03-20T01:25:41;8.30;99.90
12720;DHT22;6424;48.520;11.228;2023-03-20T01:28:23;8.30;99.90
12720;DHT22;6424;48.520;11.228;2023-03-20T01:31:04;8.20;99.90
12720;DHT22;6424;48.520;11.228;2023-03-20T01:33:45;8.20;99.90
12720;DHT22;6424;48.520;11.228;2023-03-20T01:36:26;8.20;99.90
12720;DHT22;6424;48.520;11.228;2023-03-20T01:38:57;8.20;99.90
12720;DHT22;6424;48.520;11.228;2023-03-20T01:41:38;8.20;99.90
12720;DHT22;6424;48.520;11.228;2023-03-20T01:44:27;8.20;99.90
12720;DHT22;6424;48.520;11.228;2023-03-20T01:47:16;8.20;99.90
12720;DHT22;6424;48.520;11.228;2023-03-20T01:55:47;8.20;99.90
12720;DHT22;6424;48.520;11.228;2023-03-20T01:58:34;8.20;99.90
12720;DHT22;6424;48.520;11.228;2023-03-20T02:01:17;8.10;99.90
12720;DHT22;6424;48.520;11.228;2023-03-20T02:03:58;8.10;99.90
12720;DHT22;6424;48.520;11.228;2023-03-20T02:06:39;8.10;99.90
12720;DHT22;6424;48.520;11.228;2023-03-20T02:09:21;8.10;99.90
12720;DHT22;6424;48.520;11.228;2023-03-20T02:11:48;8.10;99.90
12720;DHT22;6424;48.520;11.228;2023-03-20T02:14:14;8.10;99.90
12720;DHT22;6424;48.520;11.228;2023-03-20T02:16:55;8.10;99.90
12720;DHT22;6424;48.520;11.228;2023-03-20T02:26:06;8.00;99.90
12720;DHT22;6424;48.520;11.228;2023-03-20T02:40:31;7.90;99.90
12720;DHT22;6424;48.520;11.228;2023-03-20T02:43:33;7.90;99.90
12720;DHT22;6424;48.520;11.228;2023-03-20T02:58:23;7.90;99.90
12720;DHT22;6424;48.520;11.228;2023-03-20T03:01:16;7.80;99.90
12720;DHT22;6424;48.520;11.228;2023-03-20T03:04:19;7.90;99.90
12720;DHT22;6424;48.520;11.228;2023-03-20T03:07:02;7.90;99.90
12720;DHT22;6424;48.520;11.228;2023-03-20T03:09:52;7.80;99.90
12720;DHT22;6424;48.520;11.228;2023-03-20T03:12:37;7.90;99.90
12720;DHT22;6424;48.520;11.228;2023-03-20T03:15:33;7.90;99.90
12720;DHT22;6424;48.520;11.228;2023-03-20T03:18:18;7.90;99.90
12720;DHT22;6424;48.520;11.228;2023-03-20T03:21:01;7.90;99.90
12720;DHT22;6424;48.520;11.228;2023-03-20T03:23:47;7.90;99.90
12720;DHT22;6424;48.520;11.228;2023-03-20T03:26:33;8.00;99.90
12720;DHT22;6424;48.520;11.228;2023-03-20T03:29:16;8.00;99.90
12720;DHT22;6424;48.520;11.228;2023-03-20T03:32:01;8.00;99.90
12720;DHT22;6424;48.520;11.228;2023-03-20T03:34:43;8.00;99.90
12720;DHT22;6424;48.520;11.228;2023-03-20T03:37:55;8.00;99.90
12720;DHT22;6424;48.520;11.228;2023-03-20T03:49:25;8.00;99.90
12720;DHT22;6424;48.520;11.228;2023-03-20T03:52:14;8.00;99.90
12720;DHT22;6424;48.520;11.228;2023-03-20T03:55:09;8.10;99.90
12720;DHT22;6424;48.520;11.228;2023-03-20T03:58:15;8.00;99.90
12720;DHT22;6424;48.520;11.228;2023-03-20T04:00:59;8.00;99.90
12720;DHT22;6424;48.520;11.228;2023-03-20T04:03:47;8.00;99.90
12720;DHT22;6424;48.520;11.228;2023-03-20T04:06:28;8.00;99.90
12720;DHT22;6424;48.520;11.228;2023-03-20T04:09:09;8.00;99.90
12720;DHT22;6424;48.520;11.228;2023-03-20T04:11:51;7.90;99.90
12720;DHT22;6424;48.520;11.228;2023-03-20T04:14:32;8.00;99.90
12720;DHT22;6424;48.520;11.228;2023-03-20T04:17:13;7.90;99.90
12720;DHT22;6424;48.520;11.228;2023-03-20T04:19:54;7.90;99.90
12720;DHT22;6424;48.520;11.228;2023-03-20T04:22:34;7.90;99.90
12720;DHT22;6424;48.520;11.228;2023-03-20T04:25:19;7.90;99.90
12720;DHT22;6424;48.520;11.228;2023-03-20T04:28:00;7.90;99.90
12720;DHT22;6424;48.520;11.228;2023-03-20T04:30:41;7.90;99.90
12720;DHT22;6424;48.520;11.228;2023-03-20T04:33:24;7.90;99.90
12720;DHT22;6424;48.520;11.228;2023-03-20T04:36:06;7.80;99.90
12720;DHT22;6424;48.520;11.228;2023-03-20T04:38:47;7.80;99.90
12720;DHT22;6424;48.520;11.228;2023-03-20T04:41:28;7.80;99.90
12720;DHT22;6424;48.520;11.228;2023-03-20T04:44:08;7.70;99.90
12720;DHT22;6424;48.520;11.228;2023-03-20T04:46:49;7.70;99.90
12720;DHT22;6424;48.520;11.228;2023-03-20T04:49:15;7.70;99.90
12720;DHT22;6424;48.520;11.228;2023-03-20T04:51:56;7.60;99.90
12720;DHT22;6424;48.520;11.228;2023-03-20T04:54:37;7.60;99.90
12720;DHT22;6424;48.520;11.228;2023-03-20T04:57:17;7.60;99.90
12720;DHT22;6424;48.520;11.228;2023-03-20T04:59:58;7.60;99.90
12720;DHT22;6424;48.520;11.228;2023-03-20T05:02:39;7.60;99.90
12720;DHT22;6424;48.520;11.228;2023-03-20T05:05:20;7.60;99.90
12720;DHT22;6424;48.520;11.228;2023-03-20T05:08:02;7.60;99.90
12720;DHT22;6424;48.520;11.228;2023-03-20T05:10:27;7.60;99.90
12720;DHT22;6424;48.520;11.228;2023-03-20T05:13:08;7.60;99.90
12720;DHT22;6424;48.520;11.228;2023-03-20T05:15:49;7.60;99.90
12720;DHT22;6424;48.520;11.228;2023-03-20T05:18:30;7.60;99.90
12720;DHT22;6424;48.520;11.228;2023-03-20T05:21:11;7.60;99.90
12720;DHT22;6424;48.520;11.228;2023-03-20T05:23:52;7.60;99.90
12720;DHT22;6424;48.520;11.228;2023-03-20T05:26:32;7.60;99.90
12720;DHT22;6424;48.520;11.228;2023-03-20T05:29:13;7.50;99.90
12720;DHT22;6424;48.520;11.228;2023-03-20T05:31:54;7.40;99.90
12720;DHT22;6424;48.520;11.228;2023-03-20T05:34:35;7.40;99.90
12720;DHT22;6424;48.520;11.228;2023-03-20T05:37:16;7.40;99.90
12720;DHT22;6424;48.520;11.228;2023-03-20T05:39:57;7.40;99.90
12720;DHT22;6424;48.520;11.228;2023-03-20T05:42:38;7.40;99.90
12720;DHT22;6424;48.520;11.228;2023-03-20T05:45:18;7.40;99.90
12720;DHT22;6424;48.520;11.228;2023-03-20T05:47:44;7.40;99.90
12720;DHT22;6424;48.520;11.228;2023-03-20T05:50:26;7.40;99.90
12720;DHT22;6424;48.520;11.228;2023-03-20T05:53:06;7.50;99.90
12720;DHT22;6424;48.520;11.228;2023-03-20T05:55:32;7.50;99.90
12720;DHT22;6424;48.520;11.228;2023-03-20T05:58:13;7.50;99.90
12720;DHT22;6424;48.520;11.228;2023-03-20T06:00:59;7.40;99.90
12720;DHT22;6424;48.520;11.228;2023-03-20T06:03:39;7.40;99.90
12720;DHT22;6424;48.520;11.228;2023-03-20T06:06:20;7.50;99.90
12720;DHT22;6424;48.520;11.228;2023-03-20T06:09:01;7.50;99.90
12720;DHT22;6424;48.520;11.228;2023-03-20T06:11:42;7.60;99.90
12720;DHT22;6424;48.520;11.228;2023-03-20T06:14:23;7.60;99.90
12720;DHT22;6424;48.520;11.228;2023-03-20T06:16:48;7.70;99.90
12720;DHT22;6424;48.520;11.228;2023-03-20T06:19:29;7.70;99.90
12720;DHT22;6424;48.520;11.228;2023-03-20T06:22:10;7.70;99.90
12720;DHT22;6424;48.520;11.228;2023-03-20T06:24:51;7.70;99.90
12720;DHT22;6424;48.520;11.228;2023-03-20T06:27:32;7.70;99.90
12720;DHT22;6424;48.520;11.228;2023-03-20T06:30:13;7.80;99.90
12720;DHT22;6424;48.520;11.228;2023-03-20T06:32:39;7.90;99.90
12720;DHT22;6424;48.520;11.228;2023-03-20T06:35:20;7.90;99.90
12720;DHT22;6424;48.520;11.228;2023-03-20T06:38:01;7.90;99.90
12720;DHT22;6424;48.520;11.228;2023-03-20T06:40:42;7.90;99.90
12720;DHT22;6424;48.520;11.228;2023-03-20T06:43:22;7.90;99.90
12720;DHT22;6424;48.520;11.228;2023-03-20T06:46:04;8.00;99.90
12720;DHT22;6424;48.520;11.228;2023-03-20T06:48:30;8.00;99.90
12720;DHT22;6424;48.520;11.228;2023-03-20T06:51:11;8.30;99.90
12720;DHT22;6424;48.520;11.228;2023-03-20T06:53:52;8.90;99.90
12720;DHT22;6424;48.520;11.228;2023-03-20T06:56:32;9.50;99.90
12720;DHT22;6424;48.520;11.228;2023-03-20T06:59:13;10.00;99.90
12720;DHT22;6424;48.520;11.228;2023-03-20T07:01:39;10.20;99.90
12720;DHT22;6424;48.520;11.228;2023-03-20T07:04:19;10.30;99.90
12720;DHT22;6424;48.520;11.228;2023-03-20T07:07:00;10.10;99.90
12720;DHT22;6424;48.520;11.228;2023-03-20T07:09:26;9.90;99.90
12720;DHT22;6424;48.520;11.228;2023-03-20T07:12:14;10.00;99.90
12720;DHT22;6424;48.520;11.228;2023-03-20T07:14:55;10.20;99.90
12720;DHT22;6424;48.520;11.228;2023-03-20T07:17:36;10.30;99.90
12720;DHT22;6424;48.520;11.228;2023-03-20T07:20:17;10.20;99.90
12720;DHT22;6424;48.520;11.228;2023-03-20T07:22:58;10.00;99.90
12720;DHT22;6424;48.520;11.228;2023-03-20T07:25:39;9.90;99.90
12720;DHT22;6424;48.520;11.228;2023-03-20T07:28:20;9.70;99.90
12720;DHT22;6424;48.520;11.228;2023-03-20T07:31:01;9.70;99.90
12720;DHT22;6424;48.520;11.228;2023-03-20T07:33:26;9.70;99.90
12720;DHT22;6424;48.520;11.228;2023-03-20T07:36:07;9.80;99.90
12720;DHT22;6424;48.520;11.228;2023-03-20T07:38:33;10.00;99.90
12720;DHT22;6424;48.520;11.228;2023-03-20T07:41:14;10.40;99.90
12720;DHT22;6424;48.520;11.228;2023-03-20T07:43:54;10.60;99.90
12720;DHT22;6424;48.520;11.228;2023-03-20T07:46:35;10.60;99.90
12720;DHT22;6424;48.520;11.228;2023-03-20T07:49:17;10.60;99.90
12720;DHT22;6424;48.520;11.228;2023-03-20T07:51:58;10.60;99.90
12720;DHT22;6424;48.520;11.228;2023-03-20T07:54:38;10.70;99.90
12720;DHT22;6424;48.520;11.228;2023-03-20T07:57:19;10.70;99.90
12720;DHT22;6424;48.520;11.228;2023-03-20T08:00:00;10.70;99.90
12720;DHT22;6424;48.520;11.228;2023-03-20T08:02:41;10.60;99.90
12720;DHT22;6424;48.520;11.228;2023-03-20T08:05:22;10.60;99.90
12720;DHT22;6424;48.520;11.228;2023-03-20T08:08:03;10.50;99.90
12720;DHT22;6424;48.520;11.228;2023-03-20T08:10:45;10.50;99.90
12720;DHT22;6424;48.520;11.228;2023-03-20T08:13:26;10.90;99.90
12720;DHT22;6424;48.520;11.228;2023-03-20T08:16:07;11.10;99.90
12720;DHT22;6424;48.520;11.228;2023-03-20T08:18:48;11.20;99.90
12720;DHT22;6424;48.520;11.228;2023-03-20T08:21:31;11.30;99.90
12720;DHT22;6424;48.520;11.228;2023-03-20T08:24:12;11.20;99.90
12720;DHT22;6424;48.520;11.228;2023-03-20T08:26:53;11.30;99.90
12720;DHT22;6424;48.520;11.228;2023-03-20T08:29:33;11.60;99.90
12720;DHT22;6424;48.520;11.228;2023-03-20T08:32:15;11.70;99.90
12720;DHT22;6424;48.520;11.228;2023-03-20T08:34:56;11.80;99.90
12720;DHT22;6424;48.520;11.228;2023-03-20T08:37:37;11.70;99.90
12720;DHT22;6424;48.520;11.228;2023-03-20T08:40:17;11.60;99.90
12720;DHT22;6424;48.520;11.228;2023-03-20T08:42:58;11.60;99.90
12720;DHT22;6424;48.520;11.228;2023-03-20T08:45:39;11.50;99.90
12720;DHT22;6424;48.520;11.228;2023-03-20T08:48:20;11.40;99.90
12720;DHT22;6424;48.520;11.228;2023-03-20T08:51:02;11.50;99.90
12720;DHT22;6424;48.520;11.228;2023-03-20T08:53:44;11.50;99.90
12720;DHT22;6424;48.520;11.228;2023-03-20T08:56:25;11.50;99.90
12720;DHT22;6424;48.520;11.228;2023-03-20T08:59:06;11.50;99.90
12720;DHT22;6424;48.520;11.228;2023-03-20T09:01:46;11.60;99.90
12720;DHT22;6424;48.520;11.228;2023-03-20T09:04:27;11.90;99.90
12720;DHT22;6424;48.520;11.228;2023-03-20T09:07:08;12.00;99.90
12720;DHT22;6424;48.520;11.228;2023-03-20T09:09:49;12.20;99.90
12720;DHT22;6424;48.520;11.228;2023-03-20T09:12:30;12.30;99.90
12720;DHT22;6424;48.520;11.228;2023-03-20T09:15:13;12.30;99.90
12720;DHT22;6424;48.520;11.228;2023-03-20T09:17:54;12.20;99.90
12720;DHT22;6424;48.520;11.228;2023-03-20T09:20:35;12.10;99.90
12720;DHT22;6424;48.520;11.228;2023-03-20T09:23:16;12.30;99.90
12720;DHT22;6424;48.520;11.228;2023-03-20T09:25:57;12.60;99.90
12720;DHT22;6424;48.520;11.228;2023-03-20T09:28:38;13.00;99.90
12720;DHT22;6424;48.520;11.228;2023-03-20T09:31:19;13.30;99.90
12720;DHT22;6424;48.520;11.228;2023-03-20T09:34:00;13.30;99.90
12720;DHT22;6424;48.520;11.228;2023-03-20T09:36:40;13.20;99.90
12720;DHT22;6424;48.520;11.228;2023-03-20T09:39:21;13.00;99.90
12720;DHT22;6424;48.520;11.228;2023-03-20T09:45:49;12.70;99.90
12720;DHT22;6424;48.520;11.228;2023-03-20T09:51:52;12.90;99.90
12720;DHT22;6424;48.520;11.228;2023-03-20T09:54:32;12.80;99.90
12720;DHT22;6424;48.520;11.228;2023-03-20T09:57:24;12.80;99.90
12720;DHT22;6424;48.520;11.228;2023-03-20T10:00:27;12.70;99.90
12720;DHT22;6424;48.520;11.228;2023-03-20T10:06:02;12.50;99.90
12720;DHT22;6424;48.520;11.228;2023-03-20T10:08:45;12.70;99.90
12720;DHT22;6424;48.520;11.228;2023-03-20T10:17:50;13.80;99.90
12720;DHT22;6424;48.520;11.228;2023-03-20T10:20:34;13.90;99.90
12720;DHT22;6424;48.520;11.228;2023-03-20T10:23:25;13.80;99.90
12720;DHT22;6424;48.520;11.228;2023-03-20T10:26:14;13.70;99.90
12720;DHT22;6424;48.520;11.228;2023-03-20T10:28:57;13.60;99.90
12720;DHT22;6424;48.520;11.228;2023-03-20T10:31:56;13.40;99.90
12720;DHT22;6424;48.520;11.228;2023-03-20T10:37:50;13.20;99.90
12720;DHT22;6424;48.520;11.228;2023-03-20T10:40:34;13.20;99.90
12720;DHT22;6424;48.520;11.228;2023-03-20T10:43:20;13.20;99.90
12720;DHT22;6424;48.520;11.228;2023-03-20T10:46:18;13.20;99.90
12720;DHT22;6424;48.520;11.228;2023-03-20T10:48:49;13.40;99.90
12720;DHT22;6424;48.520;11.228;2023-03-20T10:51:42;13.50;99.90
12720;DHT22;6424;48.520;11.228;2023-03-20T10:54:36;13.70;99.90
12720;DHT22;6424;48.520;11.228;2023-03-20T10:57:23;13.80;99.90
12720;DHT22;6424;48.520;11.228;2023-03-20T11:00:04;13.60;99.90
12720;DHT22;6424;48.520;11.228;2023-03-20T11:02:50;13.50;99.90
12720;DHT22;6424;48.520;11.228;2023-03-20T11:05:33;13.20;99.90
12720;DHT22;6424;48.520;11.228;2023-03-20T11:08:16;13.10;99.90
12720;DHT22;6424;48.520;11.228;2023-03-20T11:11:02;13.20;99.90
12720;DHT22;6424;48.520;11.228;2023-03-20T11:13:43;13.50;99.90
12720;DHT22;6424;48.520;11.228;2023-03-20T11:16:33;13.80;99.90
12720;DHT22;6424;48.520;11.228;2023-03-20T11:19:18;13.90;99.90
12720;DHT22;6424;48.520;11.228;2023-03-20T11:24:45;13.80;99.90
12720;DHT22;6424;48.520;11.228;2023-03-20T11:27:29;13.80;99.90
12720;DHT22;6424;48.520;11.228;2023-03-20T11:30:13;13.70;99.90
12720;DHT22;6424;48.520;11.228;2023-03-20T11:32:57;13.70;99.90
12720;DHT22;6424;48.520;11.228;2023-03-20T11:35:45;13.60;99.90
12720;DHT22;6424;48.520;11.228;2023-03-20T11:38:29;13.50;99.90
12720;DHT22;6424;48.520;11.228;2023-03-20T11:41:56;13.40;99.90
12720;DHT22;6424;48.520;11.228;2023-03-20T11:47:14;13.10;99.90
12720;DHT22;6424;48.520;11.228;2023-03-20T11:49:59;13.00;99.90
12720;DHT22;6424;48.520;11.228;2023-03-20T11:52:40;13.00;99.90
12720;DHT22;6424;48.520;11.228;2023-03-20T11:55:28;12.90;99.90
12720;DHT22;6424;48.520;11.228;2023-03-20T11:58:13;12.90;99.90
12720;DHT22;6424;48.520;11.228;2023-03-20T12:00:56;12.90;99.90
12720;DHT22;6424;48.520;11.228;2023-03-20T12:06:48;12.90;99.90
12720;DHT22;6424;48.520;11.228;2023-03-20T12:10:10;13.00;99.90
12720;DHT22;6424;48.520;11.228;2023-03-20T12:13:06;13.00;99.90
12720;DHT22;6424;48.520;11.228;2023-03-20T12:15:58;12.80;99.90
12720;DHT22;6424;48.520;11.228;2023-03-20T12:18:51;12.70;99.90
12720;DHT22;6424;48.520;11.228;2023-03-20T12:24:40;12.60;99.90
12720;DHT22;6424;48.520;11.228;2023-03-20T12:27:30;12.60;99.90
12720;DHT22;6424;48.520;11.228;2023-03-20T12:30:17;12.80;99.90
12720;DHT22;6424;48.520;11.228;2023-03-20T12:33:09;12.80;99.90
12720;DHT22;6424;48.520;11.228;2023-03-20T12:35:53;13.00;99.90
12720;DHT22;6424;48.520;11.228;2023-03-20T12:38:35;13.20;99.90
12720;DHT22;6424;48.520;11.228;2023-03-20T12:41:28;13.40;99.90
12720;DHT22;6424;48.520;11.228;2023-03-20T12:44:26;13.50;99.90
12720;DHT22;6424;48.520;11.228;2023-03-20T12:50:36;13.50;99.90
12720;DHT22;6424;48.520;11.228;2023-03-20T12:53:34;13.60;99.90
12720;DHT22;6424;48.520;11.228;2023-03-20T13:08:43;13.60;99.90
12720;DHT22;6424;48.520;11.228;2023-03-20T13:11:51;13.50;99.90
12720;DHT22;6424;48.520;11.228;2023-03-20T13:14:43;13.40;99.90
12720;DHT22;6424;48.520;11.228;2023-03-20T13:17:49;13.30;99.90
12720;DHT22;6424;48.520;11.228;2023-03-20T13:20:47;13.30;99.90
12720;DHT22;6424;48.520;11.228;2023-03-20T13:23:50;13.30;99.90
12720;DHT22;6424;48.520;11.228;2023-03-20T13:26:36;13.20;99.90
12720;DHT22;6424;48.520;11.228;2023-03-20T13:32:19;13.00;99.90
12720;DHT22;6424;48.520;11.228;2023-03-20T13:35:23;12.90;99.90
12720;DHT22;6424;48.520;11.228;2023-03-20T13:38:20;12.80;99.90
12720;DHT22;6424;48.520;11.228;2023-03-20T13:41:04;12.80;99.90
12720;DHT22;6424;48.520;11.228;2023-03-20T13:43:46;12.80;99.90
12720;DHT22;6424;48.520;11.228;2023-03-20T13:46:24;12.70;99.90
12720;DHT22;6424;48.520;11.228;2023-03-20T13:49:19;12.60;99.90
12720;DHT22;6424;48.520;11.228;2023-03-20T13:52:05;12.50;99.90
12720;DHT22;6424;48.520;11.228;2023-03-20T14:03:48;12.30;99.90
12720;DHT22;6424;48.520;11.228;2023-03-20T14:06:49;12.30;99.90
12720;DHT22;6424;48.520;11.228;2023-03-20T14:09:33;12.30;99.90
12720;DHT22;6424;48.520;11.228;2023-03-20T14:12:15;12.30;99.90
12720;DHT22;6424;48.520;11.228;2023-03-20T14:14:59;12.30;99.90
12720;DHT22;6424;48.520;11.228;2023-03-20T14:17:46;12.30;99.90
12720;DHT22;6424;48.520;11.228;2023-03-20T14:20:36;12.40;99.90
12720;DHT22;6424;48.520;11.228;2023-03-20T14:23:24;12.50;99.90
12720;DHT22;6424;48.520;11.228;2023-03-20T14:26:29;12.60;99.90
12720;DHT22;6424;48.520;11.228;2023-03-20T14:31:50;13.00;99.90
12720;DHT22;6424;48.520;11.228;2023-03-20T14:37:29;13.00;99.90
12720;DHT22;6424;48.520;11.228;2023-03-20T14:40:15;13.10;99.90
12720;DHT22;6424;48.520;11.228;2023-03-20T14:43:02;13.10;99.90
12720;DHT22;6424;48.520;11.228;2023-03-20T14:45:50;13.10;99.90
12720;DHT22;6424;48.520;11.228;2023-03-20T14:48:46;13.20;99.90
12720;DHT22;6424;48.520;11.228;2023-03-20T14:51:46;13.30;99.90
12720;DHT22;6424;48.520;11.228;2023-03-20T14:54:29;13.30;99.90
12720;DHT22;6424;48.520;11.228;2023-03-20T14:57:17;13.20;99.90
12720;DHT22;6424;48.520;11.228;2023-03-20T15:00:00;13.20;99.90
12720;DHT22;6424;48.520;11.228;2023-03-20T15:02:45;13.20;99.90
12720;DHT22;6424;48.520;11.228;2023-03-20T15:05:31;13.20;99.90
12720;DHT22;6424;48.520;11.228;2023-03-20T15:08:20;13.10;99.90
12720;DHT22;6424;48.520;11.228;2023-03-20T15:10:51;13.00;99.90
12720;DHT22;6424;48.520;11.228;2023-03-20T15:13:34;12.90;99.90
12720;DHT22;6424;48.520;11.228;2023-03-20T15:16:25;12.70;99.90
12720;DHT22;6424;48.520;11.228;2023-03-20T15:19:17;12.60;99.90
12720;DHT22;6424;48.520;11.228;2023-03-20T15:21:58;12.50;99.90
12720;DHT22;6424;48.520;11.228;2023-03-20T15:24:39;12.40;99.90
12720;DHT22;6424;48.520;11.228;2023-03-20T15:27:21;12.40;99.90
12720;DHT22;6424;48.520;11.228;2023-03-20T15:30:03;12.40;99.90
12720;DHT22;6424;48.520;11.228;2023-03-20T15:32:29;12.40;99.90
12720;DHT22;6424;48.520;11.228;2023-03-20T15:35:15;12.40;99.90
12720;DHT22;6424;48.520;11.228;2023-03-20T15:37:45;12.50;99.90
12720;DHT22;6424;48.520;11.228;2023-03-20T15:40:28;12.50;99.90
12720;DHT22;6424;48.520;11.228;2023-03-20T15:43:00;12.40;99.90
12720;DHT22;6424;48.520;11.228;2023-03-20T15:45:33;12.40;99.90
12720;DHT22;6424;48.520;11.228;2023-03-20T15:48:12;12.30;99.90
12720;DHT22;6424;48.520;11.228;2023-03-20T15:50:56;12.40;99.90
12720;DHT22;6424;48.520;11.228;2023-03-20T15:53:38;12.30;99.90
12720;DHT22;6424;48.520;11.228;2023-03-20T15:56:24;12.30;99.90
12720;DHT22;6424;48.520;11.228;2023-03-20T15:59:05;12.20;99.90
12720;DHT22;6424;48.520;11.228;2023-03-20T16:01:50;12.20;99.90
12720;DHT22;6424;48.520;11.228;2023-03-20T16:04:31;12.20;99.90
12720;DHT22;6424;48.520;11.228;2023-03-20T16:07:20;12.20;99.90
12720;DHT22;6424;48.520;11.228;2023-03-20T16:09:46;12.20;99.90
12720;DHT22;6424;48.520;11.228;2023-03-20T16:12:28;12.10;99.90
12720;DHT22;6424;48.520;11.228;2023-03-20T16:15:14;12.00;99.90
12720;DHT22;6424;48.520;11.228;2023-03-20T16:18:02;11.90;99.90
12720;DHT22;6424;48.520;11.228;2023-03-20T16:20:57;11.80;99.90
12720;DHT22;6424;48.520;11.228;2023-03-20T16:23:40;11.80;99.90
12720;DHT22;6424;48.520;11.228;2023-03-20T16:26:25;11.80;99.90
12720;DHT22;6424;48.520;11.228;2023-03-20T16:29:06;11.80;99.90
12720;DHT22;6424;48.520;11.228;2023-03-20T16:31:54;11.70;99.90
12720;DHT22;6424;48.520;11.228;2023-03-20T16:34:37;11.70;99.90
12720;DHT22;6424;48.520;11.228;2023-03-20T16:37:30;11.70;99.90
12720;DHT22;6424;48.520;11.228;2023-03-20T16:42:55;11.60;99.90
12720;DHT22;6424;48.520;11.228;2023-03-20T16:45:36;11.60;99.90
12720;DHT22;6424;48.520;11.228;2023-03-20T16:48:29;11.60;99.90
12720;DHT22;6424;48.520;11.228;2023-03-20T16:51:22;11.60;99.90
12720;DHT22;6424;48.520;11.228;2023-03-20T16:54:20;11.50;99.90
12720;DHT22;6424;48.520;11.228;2023-03-20T16:57:02;11.40;99.90
12720;DHT22;6424;48.520;11.228;2023-03-20T16:59:47;11.30;99.90
12720;DHT22;6424;48.520;11.228;2023-03-20T17:02:35;11.30;99.90
12720;DHT22;6424;48.520;11.228;2023-03-20T17:05:19;11.20;99.90
12720;DHT22;6424;48.520;11.228;2023-03-20T17:08:11;11.10;99.90
12720;DHT22;6424;48.520;11.228;2023-03-20T17:11:00;11.00;99.90
12720;DHT22;6424;48.520;11.228;2023-03-20T17:13:27;11.00;99.90
12720;DHT22;6424;48.520;11.228;2023-03-20T17:16:19;10.90;99.90
12720;DHT22;6424;48.520;11.228;2023-03-20T17:18:46;10.80;99.90
12720;DHT22;6424;48.520;11.228;2023-03-20T17:21:28;10.70;99.90
12720;DHT22;6424;48.520;11.228;2023-03-20T17:24:10;10.60;99.90
12720;DHT22;6424;48.520;11.228;2023-03-20T17:26:54;10.60;99.90
12720;DHT22;6424;48.520;11.228;2023-03-20T17:29:20;10.50;99.90
12720;DHT22;6424;48.520;11.228;2023-03-20T17:32:01;10.40;99.90
12720;DHT22;6424;48.520;11.228;2023-03-20T17:34:42;10.30;99.90
12720;DHT22;6424;48.520;11.228;2023-03-20T17:37:25;10.20;99.90
12720;DHT22;6424;48.520;11.228;2023-03-20T17:40:10;10.20;99.90
12720;DHT22;6424;48.520;11.228;2023-03-20T17:42:54;10.10;99.90
12720;DHT22;6424;48.520;11.228;2023-03-20T17:45:21;10.00;99.90
12720;DHT22;6424;48.520;11.228;2023-03-20T17:48:02;9.90;99.90
12720;DHT22;6424;48.520;11.228;2023-03-20T17:50:44;9.80;99.90
12720;DHT22;6424;48.520;11.228;2023-03-20T17:53:25;9.80;99.90
12720;DHT22;6424;48.520;11.228;2023-03-20T17:56:13;9.70;99.90
12720;DHT22;6424;48.520;11.228;2023-03-20T17:58:55;9.60;99.90
12720;DHT22;6424;48.520;11.228;2023-03-20T18:01:36;9.60;99.90
12720;DHT22;6424;48.520;11.228;2023-03-20T18:04:16;9.50;99.90
12720;DHT22;6424;48.520;11.228;2023-03-20T18:07:00;9.40;99.90
12720;DHT22;6424;48.520;11.228;2023-03-20T18:09:42;9.30;99.90
12720;DHT22;6424;48.520;11.228;2023-03-20T18:12:23;9.30;99.90
12720;DHT22;6424;48.520;11.228;2023-03-20T18:15:04;9.20;99.90
12720;DHT22;6424;48.520;11.228;2023-03-20T18:17:45;9.20;99.90
12720;DHT22;6424;48.520;11.228;2023-03-20T18:20:31;9.20;99.90
12720;DHT22;6424;48.520;11.228;2023-03-20T18:23:14;9.10;99.90
12720;DHT22;6424;48.520;11.228;2023-03-20T18:25:55;9.10;99.90
12720;DHT22;6424;48.520;11.228;2023-03-20T18:28:35;9.00;99.90
12720;DHT22;6424;48.520;11.228;2023-03-20T18:31:16;9.00;99.90
12720;DHT22;6424;48.520;11.228;2023-03-20T18:33:47;8.90;99.90
12720;DHT22;6424;48.520;11.228;2023-03-20T18:36:28;8.80;99.90
12720;DHT22;6424;48.520;11.228;2023-03-20T18:39:15;8.70;99.90
12720;DHT22;6424;48.520;11.228;2023-03-20T18:41:57;8.70;99.90
12720;DHT22;6424;48.520;11.228;2023-03-20T18:44:37;8.60;99.90
12720;DHT22;6424;48.520;11.228;2023-03-20T18:47:18;8.50;99.90
12720;DHT22;6424;48.520;11.228;2023-03-20T18:49:59;8.50;99.90
12720;DHT22;6424;48.520;11.228;2023-03-20T18:52:40;8.40;99.90
12720;DHT22;6424;48.520;11.228;2023-03-20T18:55:22;8.30;99.90
12720;DHT22;6424;48.520;11.228;2023-03-20T18:58:03;8.30;99.90
12720;DHT22;6424;48.520;11.228;2023-03-20T19:00:45;8.20;99.90
12720;DHT22;6424;48.520;11.228;2023-03-20T19:03:26;8.20;99.90
12720;DHT22;6424;48.520;11.228;2023-03-20T19:06:21;8.20;99.90
12720;DHT22;6424;48.520;11.228;2023-03-20T19:09:03;8.10;99.90
12720;DHT22;6424;48.520;11.228;2023-03-20T19:11:44;8.10;99.90